sensor_id;sensor_type;location;lat;lon;timestamp;P1;durP1;ratioP1;P2;durP2;ratioP2
3121;SDS011;1571;52.524;14.104;2023-07-09T00:01:58;4.27;;;3.00;;
3121;SDS011;1571;52.524;14.104;2023-07-09T00:04:26;3.40;;;3.20;;
3121;SDS011;1571;52.524;14.104;2023-07-09T00:06:55;7.03;;;3.40;;
3121;SDS011;1571;52.524;14.104;2023-07-09T00:09:28;4.50;;;3.07;;
3121;SDS011;1571;52.524;14.104;2023-07-09T00:11:57;4.70;;;3.07;;
3121;SDS011;1571;52.524;14.104;2023-07-09T00:14:27;4.03;;;3.70;;
3121;SDS011;1571;52.524;14.104;2023-07-09T00:16:55;5.40;;;3.50;;
3121;SDS011;1571;52.524;14.104;2023-07-09T00:19:23;8.83;;;2.90;;
3121;SDS011;1571;52.524;14.104;2023-07-09T00:21:52;6.33;;;3.27;;
3121;SDS011;1571;52.524;14.104;2023-07-09T00:24:21;4.70;;;3.60;;
3121;SDS011;1571;52.524;14.104;2023-07-09T00:26:50;3.20;;;3.00;;
3121;SDS011;1571;52.524;14.104;2023-07-09T00:29:19;3.50;;;3.20;;
3121;SDS011;1571;52.524;14.104;2023-07-09T00:31:49;8.10;;;3.07;;
3121;SDS011;1571;52.524;14.104;2023-07-09T00:34:17;3.83;;;3.10;;
3121;SDS011;1571;52.524;14.104;2023-07-09T00:36:49;4.30;;;3.90;;
3121;SDS011;1571;52.524;14.104;2023-07-09T00:39:18;3.33;;;3.13;;
3121;SDS011;1571;52.524;14.104;2023-07-09T00:41:49;4.40;;;3.20;;
3121;SDS011;1571;52.524;14.104;2023-07-09T00:44:26;3.43;;;3.13;;
3121;SDS011;1571;52.524;14.104;2023-07-09T00:47:14;4.40;;;4.10;;
3121;SDS011;1571;52.524;14.104;2023-07-09T00:49:48;3.47;;;3.27;;
3121;SDS011;1571;52.524;14.104;2023-07-09T00:52:21;5.90;;;2.90;;
3121;SDS011;1571;52.524;14.104;2023-07-09T00:54:52;3.80;;;3.50;;
3121;SDS011;1571;52.524;14.104;2023-07-09T00:57:21;3.63;;;3.33;;
3121;SDS011;1571;52.524;14.104;2023-07-09T00:59:55;3.83;;;3.37;;
3121;SDS011;1571;52.524;14.104;2023-07-09T01:02:27;7.20;;;4.07;;
3121;SDS011;1571;52.524;14.104;2023-07-09T01:04:57;3.40;;;3.10;;
3121;SDS011;1571;52.524;14.104;2023-07-09T01:07:29;4.67;;;3.97;;
3121;SDS011;1571;52.524;14.104;2023-07-09T01:09:58;4.17;;;3.60;;
3121;SDS011;1571;52.524;14.104;2023-07-09T01:12:26;3.80;;;3.33;;
3121;SDS011;1571;52.524;14.104;2023-07-09T01:14:57;4.20;;;3.90;;
3121;SDS011;1571;52.524;14.104;2023-07-09T01:17:28;3.57;;;3.27;;
3121;SDS011;1571;52.524;14.104;2023-07-09T01:19:57;5.00;;;4.10;;
3121;SDS011;1571;52.524;14.104;2023-07-09T01:22:27;3.83;;;3.40;;
3121;SDS011;1571;52.524;14.104;2023-07-09T01:24:58;3.33;;;3.13;;
3121;SDS011;1571;52.524;14.104;2023-07-09T01:27:30;4.47;;;4.13;;
3121;SDS011;1571;52.524;14.104;2023-07-09T01:30:02;3.70;;;3.50;;
3121;SDS011;1571;52.524;14.104;2023-07-09T01:32:33;4.33;;;3.93;;
3121;SDS011;1571;52.524;14.104;2023-07-09T01:35:02;6.50;;;5.07;;
3121;SDS011;1571;52.524;14.104;2023-07-09T01:37:36;4.67;;;4.27;;
3121;SDS011;1571;52.524;14.104;2023-07-09T01:40:06;4.13;;;3.83;;
3121;SDS011;1571;52.524;14.104;2023-07-09T01:42:55;4.30;;;3.90;;
3121;SDS011;1571;52.524;14.104;2023-07-09T01:45:26;8.33;;;3.43;;
3121;SDS011;1571;52.524;14.104;2023-07-09T01:47:55;8.70;;;3.70;;
3121;SDS011;1571;52.524;14.104;2023-07-09T01:50:24;3.47;;;3.27;;
3121;SDS011;1571;52.524;14.104;2023-07-09T01:52:57;4.13;;;3.73;;
3121;SDS011;1571;52.524;14.104;2023-07-09T01:55:26;4.07;;;3.77;;
3121;SDS011;1571;52.524;14.104;2023-07-09T01:57:58;3.80;;;3.30;;
3121;SDS011;1571;52.524;14.104;2023-07-09T02:00:26;4.77;;;3.97;;
3121;SDS011;1571;52.524;14.104;2023-07-09T02:02:54;5.67;;;3.97;;
3121;SDS011;1571;52.524;14.104;2023-07-09T02:05:25;6.70;;;3.90;;
3121;SDS011;1571;52.524;14.104;2023-07-09T02:07:54;4.13;;;3.83;;
3121;SDS011;1571;52.524;14.104;2023-07-09T02:10:23;7.27;;;4.13;;
3121;SDS011;1571;52.524;14.104;2023-07-09T02:12:52;4.93;;;4.47;;
3121;SDS011;1571;52.524;14.104;2023-07-09T02:15:20;4.13;;;3.80;;
3121;SDS011;1571;52.524;14.104;2023-07-09T02:17:49;4.13;;;3.70;;
3121;SDS011;1571;52.524;14.104;2023-07-09T02:20:19;4.17;;;3.87;;
3121;SDS011;1571;52.524;14.104;2023-07-09T02:22:49;6.00;;;5.03;;
3121;SDS011;1571;52.524;14.104;2023-07-09T02:25:18;7.90;;;4.47;;
3121;SDS011;1571;52.524;14.104;2023-07-09T02:27:48;4.70;;;4.37;;
3121;SDS011;1571;52.524;14.104;2023-07-09T02:30:17;3.90;;;3.50;;
3121;SDS011;1571;52.524;14.104;2023-07-09T02:32:45;5.00;;;4.50;;
3121;SDS011;1571;52.524;14.104;2023-07-09T02:35:16;4.33;;;4.03;;
3121;SDS011;1571;52.524;14.104;2023-07-09T02:37:44;5.07;;;4.20;;
3121;SDS011;1571;52.524;14.104;2023-07-09T02:40:13;6.27;;;4.53;;
3121;SDS011;1571;52.524;14.104;2023-07-09T02:42:43;6.40;;;4.80;;
3121;SDS011;1571;52.524;14.104;2023-07-09T02:45:14;7.53;;;4.37;;
3121;SDS011;1571;52.524;14.104;2023-07-09T02:47:42;7.50;;;5.87;;
3121;SDS011;1571;52.524;14.104;2023-07-09T02:50:11;5.70;;;5.20;;
3121;SDS011;1571;52.524;14.104;2023-07-09T02:52:39;12.00;;;4.70;;
3121;SDS011;1571;52.524;14.104;2023-07-09T02:55:09;4.90;;;4.17;;
3121;SDS011;1571;52.524;14.104;2023-07-09T02:57:37;4.93;;;4.10;;
3121;SDS011;1571;52.524;14.104;2023-07-09T03:00:06;5.57;;;4.27;;
3121;SDS011;1571;52.524;14.104;2023-07-09T03:02:37;6.83;;;4.10;;
3121;SDS011;1571;52.524;14.104;2023-07-09T03:05:05;4.87;;;4.37;;
3121;SDS011;1571;52.524;14.104;2023-07-09T03:07:37;6.60;;;4.77;;
3121;SDS011;1571;52.524;14.104;2023-07-09T03:10:06;4.07;;;3.87;;
3121;SDS011;1571;52.524;14.104;2023-07-09T03:12:35;4.10;;;3.80;;
3121;SDS011;1571;52.524;14.104;2023-07-09T03:15:03;3.80;;;3.60;;
3121;SDS011;1571;52.524;14.104;2023-07-09T03:17:32;4.97;;;4.53;;
3121;SDS011;1571;52.524;14.104;2023-07-09T03:20:02;5.00;;;4.63;;
3121;SDS011;1571;52.524;14.104;2023-07-09T03:22:31;7.43;;;5.47;;
3121;SDS011;1571;52.524;14.104;2023-07-09T03:25:00;5.30;;;4.80;;
3121;SDS011;1571;52.524;14.104;2023-07-09T03:27:28;4.80;;;4.30;;
3121;SDS011;1571;52.524;14.104;2023-07-09T03:29:56;5.80;;;4.80;;
3121;SDS011;1571;52.524;14.104;2023-07-09T03:32:24;7.97;;;4.43;;
3121;SDS011;1571;52.524;14.104;2023-07-09T03:34:53;8.17;;;4.70;;
3121;SDS011;1571;52.524;14.104;2023-07-09T03:37:22;6.63;;;5.37;;
3121;SDS011;1571;52.524;14.104;2023-07-09T03:39:50;5.90;;;5.23;;
3121;SDS011;1571;52.524;14.104;2023-07-09T03:42:19;5.23;;;4.83;;
3121;SDS011;1571;52.524;14.104;2023-07-09T03:44:47;7.40;;;4.40;;
3121;SDS011;1571;52.524;14.104;2023-07-09T03:47:15;9.87;;;5.60;;
3121;SDS011;1571;52.524;14.104;2023-07-09T03:49:45;5.00;;;4.60;;
3121;SDS011;1571;52.524;14.104;2023-07-09T03:52:13;4.97;;;4.57;;
3121;SDS011;1571;52.524;14.104;2023-07-09T03:54:43;4.50;;;4.20;;
3121;SDS011;1571;52.524;14.104;2023-07-09T03:57:11;7.20;;;4.67;;
3121;SDS011;1571;52.524;14.104;2023-07-09T03:59:40;5.23;;;4.27;;
3121;SDS011;1571;52.524;14.104;2023-07-09T04:02:08;6.60;;;5.00;;
3121;SDS011;1571;52.524;14.104;2023-07-09T04:04:36;4.90;;;4.50;;
3121;SDS011;1571;52.524;14.104;2023-07-09T04:07:04;4.87;;;4.57;;
3121;SDS011;1571;52.524;14.104;2023-07-09T04:09:33;5.97;;;5.50;;
3121;SDS011;1571;52.524;14.104;2023-07-09T04:12:03;4.80;;;4.30;;
3121;SDS011;1571;52.524;14.104;2023-07-09T04:14:32;5.00;;;4.50;;
3121;SDS011;1571;52.524;14.104;2023-07-09T04:17:00;4.93;;;4.60;;
3121;SDS011;1571;52.524;14.104;2023-07-09T04:19:29;5.47;;;4.77;;
3121;SDS011;1571;52.524;14.104;2023-07-09T04:21:57;4.60;;;4.20;;
3121;SDS011;1571;52.524;14.104;2023-07-09T04:24:25;4.93;;;4.20;;
3121;SDS011;1571;52.524;14.104;2023-07-09T04:26:55;4.47;;;3.63;;
3121;SDS011;1571;52.524;14.104;2023-07-09T04:29:26;4.97;;;4.57;;
3121;SDS011;1571;52.524;14.104;2023-07-09T04:31:54;4.90;;;3.93;;
3121;SDS011;1571;52.524;14.104;2023-07-09T04:34:22;3.93;;;3.53;;
3121;SDS011;1571;52.524;14.104;2023-07-09T04:36:51;3.87;;;3.60;;
3121;SDS011;1571;52.524;14.104;2023-07-09T04:39:19;3.93;;;3.53;;
3121;SDS011;1571;52.524;14.104;2023-07-09T04:41:47;4.77;;;4.37;;
3121;SDS011;1571;52.524;14.104;2023-07-09T04:44:16;5.23;;;4.03;;
3121;SDS011;1571;52.524;14.104;2023-07-09T04:46:45;3.90;;;3.60;;
3121;SDS011;1571;52.524;14.104;2023-07-09T04:49:17;3.93;;;3.63;;
3121;SDS011;1571;52.524;14.104;2023-07-09T04:51:45;6.93;;;4.50;;
3121;SDS011;1571;52.524;14.104;2023-07-09T04:54:14;3.83;;;3.53;;
3121;SDS011;1571;52.524;14.104;2023-07-09T04:56:42;4.40;;;3.80;;
3121;SDS011;1571;52.524;14.104;2023-07-09T04:59:11;4.37;;;3.63;;
3121;SDS011;1571;52.524;14.104;2023-07-09T05:01:40;5.07;;;4.40;;
3121;SDS011;1571;52.524;14.104;2023-07-09T05:04:10;5.20;;;4.60;;
3121;SDS011;1571;52.524;14.104;2023-07-09T05:06:39;5.97;;;4.13;;
3121;SDS011;1571;52.524;14.104;2023-07-09T05:09:07;5.40;;;4.13;;
3121;SDS011;1571;52.524;14.104;2023-07-09T05:11:36;3.60;;;3.37;;
3121;SDS011;1571;52.524;14.104;2023-07-09T05:14:04;5.70;;;3.30;;
3121;SDS011;1571;52.524;14.104;2023-07-09T05:16:32;5.77;;;4.60;;
3121;SDS011;1571;52.524;14.104;2023-07-09T05:19:01;4.83;;;3.83;;
3121;SDS011;1571;52.524;14.104;2023-07-09T05:21:30;4.70;;;4.30;;
3121;SDS011;1571;52.524;14.104;2023-07-09T05:23:59;5.10;;;4.70;;
3121;SDS011;1571;52.524;14.104;2023-07-09T05:26:27;6.10;;;4.10;;
3121;SDS011;1571;52.524;14.104;2023-07-09T05:28:55;3.83;;;3.53;;
3121;SDS011;1571;52.524;14.104;2023-07-09T05:31:24;5.93;;;4.20;;
3121;SDS011;1571;52.524;14.104;2023-07-09T05:33:53;3.63;;;3.37;;
3121;SDS011;1571;52.524;14.104;2023-07-09T05:36:21;4.30;;;3.60;;
3121;SDS011;1571;52.524;14.104;2023-07-09T05:38:51;4.50;;;4.10;;
3121;SDS011;1571;52.524;14.104;2023-07-09T05:41:19;6.87;;;4.17;;
3121;SDS011;1571;52.524;14.104;2023-07-09T05:43:49;3.90;;;3.60;;
3121;SDS011;1571;52.524;14.104;2023-07-09T05:46:18;4.80;;;4.23;;
3121;SDS011;1571;52.524;14.104;2023-07-09T05:48:47;5.60;;;4.83;;
3121;SDS011;1571;52.524;14.104;2023-07-09T05:51:15;3.63;;;3.40;;
3121;SDS011;1571;52.524;14.104;2023-07-09T05:53:43;3.60;;;3.20;;
3121;SDS011;1571;52.524;14.104;2023-07-09T05:56:13;4.50;;;4.10;;
3121;SDS011;1571;52.524;14.104;2023-07-09T05:58:41;3.87;;;3.47;;
3121;SDS011;1571;52.524;14.104;2023-07-09T06:01:09;4.00;;;3.60;;
3121;SDS011;1571;52.524;14.104;2023-07-09T06:03:38;4.00;;;3.80;;
3121;SDS011;1571;52.524;14.104;2023-07-09T06:06:06;4.30;;;4.00;;
3121;SDS011;1571;52.524;14.104;2023-07-09T06:08:35;4.60;;;4.20;;
3121;SDS011;1571;52.524;14.104;2023-07-09T06:11:06;7.70;;;3.57;;
3121;SDS011;1571;52.524;14.104;2023-07-09T06:13:35;7.87;;;3.10;;
3121;SDS011;1571;52.524;14.104;2023-07-09T06:16:04;3.87;;;3.57;;
3121;SDS011;1571;52.524;14.104;2023-07-09T06:18:33;6.67;;;3.50;;
3121;SDS011;1571;52.524;14.104;2023-07-09T06:21:02;4.40;;;3.03;;
3121;SDS011;1571;52.524;14.104;2023-07-09T06:23:31;6.50;;;3.70;;
3121;SDS011;1571;52.524;14.104;2023-07-09T06:25:59;3.60;;;3.30;;
3121;SDS011;1571;52.524;14.104;2023-07-09T06:28:28;4.40;;;4.03;;
3121;SDS011;1571;52.524;14.104;2023-07-09T06:30:58;4.27;;;3.77;;
3121;SDS011;1571;52.524;14.104;2023-07-09T06:33:26;7.87;;;3.27;;
3121;SDS011;1571;52.524;14.104;2023-07-09T06:35:56;7.70;;;3.13;;
3121;SDS011;1571;52.524;14.104;2023-07-09T06:38:26;3.73;;;3.43;;
3121;SDS011;1571;52.524;14.104;2023-07-09T06:40:55;3.70;;;3.40;;
3121;SDS011;1571;52.524;14.104;2023-07-09T06:43:24;4.33;;;3.90;;
3121;SDS011;1571;52.524;14.104;2023-07-09T06:45:53;4.63;;;4.23;;
3121;SDS011;1571;52.524;14.104;2023-07-09T06:48:25;4.20;;;3.57;;
3121;SDS011;1571;52.524;14.104;2023-07-09T06:50:55;3.83;;;3.63;;
3121;SDS011;1571;52.524;14.104;2023-07-09T06:53:25;6.13;;;4.17;;
3121;SDS011;1571;52.524;14.104;2023-07-09T06:55:55;3.60;;;3.40;;
3121;SDS011;1571;52.524;14.104;2023-07-09T06:58:26;4.47;;;4.07;;
3121;SDS011;1571;52.524;14.104;2023-07-09T07:00:55;8.63;;;4.07;;
3121;SDS011;1571;52.524;14.104;2023-07-09T07:03:25;3.83;;;3.47;;
3121;SDS011;1571;52.524;14.104;2023-07-09T07:05:54;4.10;;;3.80;;
3121;SDS011;1571;52.524;14.104;2023-07-09T07:08:23;5.40;;;4.03;;
3121;SDS011;1571;52.524;14.104;2023-07-09T07:10:54;5.80;;;3.93;;
3121;SDS011;1571;52.524;14.104;2023-07-09T07:13:28;4.20;;;3.60;;
3121;SDS011;1571;52.524;14.104;2023-07-09T07:15:57;5.97;;;4.10;;
3121;SDS011;1571;52.524;14.104;2023-07-09T07:18:27;4.00;;;3.63;;
3121;SDS011;1571;52.524;14.104;2023-07-09T07:20:55;3.87;;;3.57;;
3121;SDS011;1571;52.524;14.104;2023-07-09T07:23:23;3.90;;;3.67;;
3121;SDS011;1571;52.524;14.104;2023-07-09T07:25:52;4.73;;;3.90;;
3121;SDS011;1571;52.524;14.104;2023-07-09T07:28:21;4.43;;;4.13;;
3121;SDS011;1571;52.524;14.104;2023-07-09T07:30:57;4.10;;;3.80;;
3121;SDS011;1571;52.524;14.104;2023-07-09T07:33:28;4.00;;;3.70;;
3121;SDS011;1571;52.524;14.104;2023-07-09T07:35:56;3.77;;;3.47;;
3121;SDS011;1571;52.524;14.104;2023-07-09T07:38:27;4.70;;;3.57;;
3121;SDS011;1571;52.524;14.104;2023-07-09T07:40:55;3.60;;;3.30;;
3121;SDS011;1571;52.524;14.104;2023-07-09T07:43:24;3.73;;;3.50;;
3121;SDS011;1571;52.524;14.104;2023-07-09T07:45:52;4.83;;;4.03;;
3121;SDS011;1571;52.524;14.104;2023-07-09T07:48:20;4.13;;;3.83;;
3121;SDS011;1571;52.524;14.104;2023-07-09T07:50:50;5.73;;;3.67;;
3121;SDS011;1571;52.524;14.104;2023-07-09T07:53:18;4.50;;;4.10;;
3121;SDS011;1571;52.524;14.104;2023-07-09T07:55:46;4.53;;;4.13;;
3121;SDS011;1571;52.524;14.104;2023-07-09T07:58:15;4.87;;;3.20;;
3121;SDS011;1571;52.524;14.104;2023-07-09T08:00:44;3.93;;;3.63;;
3121;SDS011;1571;52.524;14.104;2023-07-09T08:03:12;5.23;;;3.60;;
3121;SDS011;1571;52.524;14.104;2023-07-09T08:05:40;4.47;;;4.17;;
3121;SDS011;1571;52.524;14.104;2023-07-09T08:08:10;9.30;;;4.23;;
3121;SDS011;1571;52.524;14.104;2023-07-09T08:10:49;4.10;;;3.70;;
3121;SDS011;1571;52.524;14.104;2023-07-09T08:13:18;8.17;;;3.80;;
3121;SDS011;1571;52.524;14.104;2023-07-09T08:15:47;2.93;;;2.73;;
3121;SDS011;1571;52.524;14.104;2023-07-09T08:18:27;2.30;;;2.20;;
3121;SDS011;1571;52.524;14.104;2023-07-09T08:20:56;3.20;;;2.70;;
3121;SDS011;1571;52.524;14.104;2023-07-09T08:23:26;3.07;;;2.87;;
3121;SDS011;1571;52.524;14.104;2023-07-09T08:25:55;3.40;;;3.20;;
3121;SDS011;1571;52.524;14.104;2023-07-09T08:28:24;3.20;;;2.70;;
3121;SDS011;1571;52.524;14.104;2023-07-09T08:30:53;4.80;;;3.00;;
3121;SDS011;1571;52.524;14.104;2023-07-09T08:33:23;4.03;;;2.47;;
3121;SDS011;1571;52.524;14.104;2023-07-09T08:35:52;5.33;;;2.67;;
3121;SDS011;1571;52.524;14.104;2023-07-09T08:38:22;3.90;;;2.30;;
3121;SDS011;1571;52.524;14.104;2023-07-09T08:40:55;2.57;;;2.37;;
3121;SDS011;1571;52.524;14.104;2023-07-09T08:43:35;3.37;;;3.07;;
3121;SDS011;1571;52.524;14.104;2023-07-09T08:46:14;3.03;;;2.20;;
3121;SDS011;1571;52.524;14.104;2023-07-09T08:48:48;3.13;;;2.93;;
3121;SDS011;1571;52.524;14.104;2023-07-09T08:51:21;5.40;;;2.63;;
3121;SDS011;1571;52.524;14.104;2023-07-09T08:53:57;2.50;;;2.30;;
3121;SDS011;1571;52.524;14.104;2023-07-09T08:56:28;3.10;;;2.73;;
3121;SDS011;1571;52.524;14.104;2023-07-09T08:59:01;3.17;;;2.93;;
3121;SDS011;1571;52.524;14.104;2023-07-09T09:01:34;2.90;;;2.80;;
3121;SDS011;1571;52.524;14.104;2023-07-09T09:04:11;3.13;;;2.93;;
3121;SDS011;1571;52.524;14.104;2023-07-09T09:06:48;2.90;;;2.33;;
3121;SDS011;1571;52.524;14.104;2023-07-09T09:09:22;2.77;;;2.63;;
3121;SDS011;1571;52.524;14.104;2023-07-09T09:12:08;2.80;;;2.60;;
3121;SDS011;1571;52.524;14.104;2023-07-09T09:14:44;2.00;;;1.90;;
3121;SDS011;1571;52.524;14.104;2023-07-09T09:17:20;2.60;;;2.40;;
3121;SDS011;1571;52.524;14.104;2023-07-09T09:19:50;2.67;;;2.47;;
3121;SDS011;1571;52.524;14.104;2023-07-09T09:22:23;2.37;;;2.17;;
3121;SDS011;1571;52.524;14.104;2023-07-09T09:24:57;2.60;;;2.50;;
3121;SDS011;1571;52.524;14.104;2023-07-09T09:27:33;3.27;;;2.87;;
3121;SDS011;1571;52.524;14.104;2023-07-09T09:30:02;3.10;;;2.90;;
3121;SDS011;1571;52.524;14.104;2023-07-09T09:32:34;2.80;;;2.37;;
3121;SDS011;1571;52.524;14.104;2023-07-09T09:35:13;3.00;;;2.80;;
3121;SDS011;1571;52.524;14.104;2023-07-09T09:37:44;2.30;;;2.20;;
3121;SDS011;1571;52.524;14.104;2023-07-09T09:40:20;2.57;;;2.27;;
3121;SDS011;1571;52.524;14.104;2023-07-09T09:42:53;2.70;;;2.23;;
3121;SDS011;1571;52.524;14.104;2023-07-09T09:45:26;2.80;;;2.70;;
3121;SDS011;1571;52.524;14.104;2023-07-09T09:47:58;2.30;;;2.10;;
3121;SDS011;1571;52.524;14.104;2023-07-09T09:50:30;2.80;;;2.53;;
3121;SDS011;1571;52.524;14.104;2023-07-09T09:53:01;3.00;;;2.70;;
3121;SDS011;1571;52.524;14.104;2023-07-09T09:55:30;2.70;;;2.53;;
3121;SDS011;1571;52.524;14.104;2023-07-09T09:58:01;2.50;;;2.30;;
3121;SDS011;1571;52.524;14.104;2023-07-09T10:00:30;2.50;;;2.30;;
3121;SDS011;1571;52.524;14.104;2023-07-09T10:03:01;2.83;;;2.60;;
3121;SDS011;1571;52.524;14.104;2023-07-09T10:05:34;3.10;;;2.07;;
3121;SDS011;1571;52.524;14.104;2023-07-09T10:08:08;2.73;;;2.50;;
3121;SDS011;1571;52.524;14.104;2023-07-09T10:10:40;2.43;;;2.33;;
3121;SDS011;1571;52.524;14.104;2023-07-09T10:13:17;2.20;;;2.10;;
3121;SDS011;1571;52.524;14.104;2023-07-09T10:15:57;2.33;;;2.23;;
3121;SDS011;1571;52.524;14.104;2023-07-09T10:18:36;2.90;;;1.87;;
3121;SDS011;1571;52.524;14.104;2023-07-09T10:21:13;2.40;;;1.97;;
3121;SDS011;1571;52.524;14.104;2023-07-09T10:23:48;3.03;;;2.67;;
3121;SDS011;1571;52.524;14.104;2023-07-09T10:26:32;4.50;;;2.37;;
3121;SDS011;1571;52.524;14.104;2023-07-09T10:29:17;3.13;;;2.73;;
3121;SDS011;1571;52.524;14.104;2023-07-09T10:31:55;2.77;;;2.50;;
3121;SDS011;1571;52.524;14.104;2023-07-09T10:34:32;2.40;;;2.20;;
3121;SDS011;1571;52.524;14.104;2023-07-09T10:37:20;3.00;;;2.70;;
3121;SDS011;1571;52.524;14.104;2023-07-09T10:40:20;3.63;;;2.37;;
3121;SDS011;1571;52.524;14.104;2023-07-09T10:42:54;2.90;;;2.70;;
3121;SDS011;1571;52.524;14.104;2023-07-09T10:45:29;2.40;;;2.30;;
3121;SDS011;1571;52.524;14.104;2023-07-09T10:48:01;3.13;;;2.43;;
3121;SDS011;1571;52.524;14.104;2023-07-09T10:50:36;2.20;;;2.10;;
3121;SDS011;1571;52.524;14.104;2023-07-09T10:53:09;3.07;;;2.77;;
3121;SDS011;1571;52.524;14.104;2023-07-09T10:55:42;2.33;;;2.23;;
3121;SDS011;1571;52.524;14.104;2023-07-09T10:58:19;2.40;;;2.20;;
3121;SDS011;1571;52.524;14.104;2023-07-09T11:00:57;3.10;;;2.80;;
3121;SDS011;1571;52.524;14.104;2023-07-09T11:03:33;2.73;;;2.57;;
3121;SDS011;1571;52.524;14.104;2023-07-09T11:06:09;3.13;;;2.30;;
3121;SDS011;1571;52.524;14.104;2023-07-09T11:08:43;4.60;;;3.20;;
3121;SDS011;1571;52.524;14.104;2023-07-09T11:11:17;2.37;;;2.27;;
3121;SDS011;1571;52.524;14.104;2023-07-09T11:13:54;2.60;;;1.90;;
3121;SDS011;1571;52.524;14.104;2023-07-09T11:16:29;2.73;;;2.53;;
3121;SDS011;1571;52.524;14.104;2023-07-09T11:19:02;2.80;;;2.60;;
3121;SDS011;1571;52.524;14.104;2023-07-09T11:21:33;2.40;;;2.30;;
3121;SDS011;1571;52.524;14.104;2023-07-09T11:24:25;3.37;;;3.07;;
3121;SDS011;1571;52.524;14.104;2023-07-09T11:26:59;3.30;;;3.10;;
3121;SDS011;1571;52.524;14.104;2023-07-09T11:29:28;2.80;;;2.60;;
3121;SDS011;1571;52.524;14.104;2023-07-09T11:32:07;3.23;;;2.47;;
3121;SDS011;1571;52.524;14.104;2023-07-09T11:34:44;2.63;;;2.53;;
3121;SDS011;1571;52.524;14.104;2023-07-09T11:37:15;2.57;;;2.37;;
3121;SDS011;1571;52.524;14.104;2023-07-09T11:39:45;4.13;;;2.17;;
3121;SDS011;1571;52.524;14.104;2023-07-09T11:42:26;2.60;;;2.50;;
3121;SDS011;1571;52.524;14.104;2023-07-09T11:45:00;4.83;;;2.80;;
3121;SDS011;1571;52.524;14.104;2023-07-09T11:47:36;4.53;;;2.60;;
3121;SDS011;1571;52.524;14.104;2023-07-09T11:50:13;3.00;;;2.80;;
3121;SDS011;1571;52.524;14.104;2023-07-09T11:52:52;2.60;;;2.50;;
3121;SDS011;1571;52.524;14.104;2023-07-09T11:55:27;2.63;;;2.53;;
3121;SDS011;1571;52.524;14.104;2023-07-09T11:58:00;4.40;;;2.57;;
3121;SDS011;1571;52.524;14.104;2023-07-09T12:00:30;2.47;;;2.27;;
3121;SDS011;1571;52.524;14.104;2023-07-09T12:03:15;4.40;;;3.33;;
3121;SDS011;1571;52.524;14.104;2023-07-09T12:05:48;2.93;;;2.73;;
3121;SDS011;1571;52.524;14.104;2023-07-09T12:08:20;3.13;;;2.93;;
3121;SDS011;1571;52.524;14.104;2023-07-09T12:10:53;2.60;;;2.40;;
3121;SDS011;1571;52.524;14.104;2023-07-09T12:13:22;3.30;;;3.00;;
3121;SDS011;1571;52.524;14.104;2023-07-09T12:15:51;2.40;;;2.30;;
3121;SDS011;1571;52.524;14.104;2023-07-09T12:18:21;3.90;;;2.80;;
3121;SDS011;1571;52.524;14.104;2023-07-09T12:20:51;2.80;;;2.60;;
3121;SDS011;1571;52.524;14.104;2023-07-09T12:23:22;2.73;;;2.53;;
3121;SDS011;1571;52.524;14.104;2023-07-09T12:25:55;3.20;;;3.00;;
3121;SDS011;1571;52.524;14.104;2023-07-09T12:28:28;2.97;;;2.77;;
3121;SDS011;1571;52.524;14.104;2023-07-09T12:30:57;3.17;;;2.87;;
3121;SDS011;1571;52.524;14.104;2023-07-09T12:33:28;3.10;;;2.90;;
3121;SDS011;1571;52.524;14.104;2023-07-09T12:35:57;3.70;;;2.83;;
3121;SDS011;1571;52.524;14.104;2023-07-09T12:38:29;3.20;;;2.90;;
3121;SDS011;1571;52.524;14.104;2023-07-09T12:41:08;7.40;;;2.87;;
3121;SDS011;1571;52.524;14.104;2023-07-09T12:43:46;4.53;;;3.20;;
3121;SDS011;1571;52.524;14.104;2023-07-09T12:46:16;4.23;;;2.87;;
3121;SDS011;1571;52.524;14.104;2023-07-09T12:48:47;2.77;;;2.57;;
3121;SDS011;1571;52.524;14.104;2023-07-09T12:51:18;4.03;;;2.30;;
3121;SDS011;1571;52.524;14.104;2023-07-09T12:53:59;3.57;;;2.60;;
3121;SDS011;1571;52.524;14.104;2023-07-09T12:56:29;5.57;;;3.07;;
3121;SDS011;1571;52.524;14.104;2023-07-09T12:59:01;3.17;;;2.73;;
3121;SDS011;1571;52.524;14.104;2023-07-09T13:01:41;3.33;;;3.03;;
3121;SDS011;1571;52.524;14.104;2023-07-09T13:04:12;3.30;;;3.00;;
3121;SDS011;1571;52.524;14.104;2023-07-09T13:06:40;4.67;;;2.83;;
3121;SDS011;1571;52.524;14.104;2023-07-09T13:09:13;5.33;;;3.40;;
3121;SDS011;1571;52.524;14.104;2023-07-09T13:11:48;3.00;;;2.80;;
3121;SDS011;1571;52.524;14.104;2023-07-09T13:14:18;3.67;;;2.90;;
3121;SDS011;1571;52.524;14.104;2023-07-09T13:16:49;3.53;;;3.23;;
3121;SDS011;1571;52.524;14.104;2023-07-09T13:19:19;2.70;;;2.50;;
3121;SDS011;1571;52.524;14.104;2023-07-09T13:21:48;2.13;;;1.97;;
3121;SDS011;1571;52.524;14.104;2023-07-09T13:24:22;3.60;;;3.30;;
3121;SDS011;1571;52.524;14.104;2023-07-09T13:26:52;2.80;;;2.30;;
3121;SDS011;1571;52.524;14.104;2023-07-09T13:29:21;4.53;;;2.67;;
3121;SDS011;1571;52.524;14.104;2023-07-09T13:31:50;4.70;;;2.40;;
3121;SDS011;1571;52.524;14.104;2023-07-09T13:34:22;3.47;;;3.27;;
3121;SDS011;1571;52.524;14.104;2023-07-09T13:36:52;2.90;;;2.70;;
3121;SDS011;1571;52.524;14.104;2023-07-09T13:39:23;2.90;;;2.23;;
3121;SDS011;1571;52.524;14.104;2023-07-09T13:41:55;3.30;;;2.90;;
3121;SDS011;1571;52.524;14.104;2023-07-09T13:44:25;2.90;;;2.70;;
3121;SDS011;1571;52.524;14.104;2023-07-09T13:46:55;2.90;;;2.33;;
3121;SDS011;1571;52.524;14.104;2023-07-09T13:49:26;3.30;;;3.00;;
3121;SDS011;1571;52.524;14.104;2023-07-09T13:51:55;4.33;;;3.47;;
3121;SDS011;1571;52.524;14.104;2023-07-09T13:54:27;6.57;;;5.97;;
3121;SDS011;1571;52.524;14.104;2023-07-09T13:57:03;3.23;;;3.03;;
3121;SDS011;1571;52.524;14.104;2023-07-09T13:59:33;3.40;;;3.10;;
3121;SDS011;1571;52.524;14.104;2023-07-09T14:02:01;3.43;;;3.10;;
3121;SDS011;1571;52.524;14.104;2023-07-09T14:04:34;3.40;;;3.07;;
3121;SDS011;1571;52.524;14.104;2023-07-09T14:07:04;2.73;;;2.53;;
3121;SDS011;1571;52.524;14.104;2023-07-09T14:09:33;3.17;;;2.83;;
3121;SDS011;1571;52.524;14.104;2023-07-09T14:12:02;3.50;;;3.20;;
3121;SDS011;1571;52.524;14.104;2023-07-09T14:14:33;3.57;;;2.50;;
3121;SDS011;1571;52.524;14.104;2023-07-09T14:17:02;3.60;;;3.23;;
3121;SDS011;1571;52.524;14.104;2023-07-09T14:19:31;3.53;;;2.90;;
3121;SDS011;1571;52.524;14.104;2023-07-09T14:22:04;3.90;;;3.60;;
3121;SDS011;1571;52.524;14.104;2023-07-09T14:24:49;4.73;;;2.20;;
3121;SDS011;1571;52.524;14.104;2023-07-09T14:27:19;2.90;;;2.70;;
3121;SDS011;1571;52.524;14.104;2023-07-09T14:29:48;3.67;;;3.47;;
3121;SDS011;1571;52.524;14.104;2023-07-09T14:32:25;3.53;;;3.33;;
3121;SDS011;1571;52.524;14.104;2023-07-09T14:35:02;3.57;;;3.27;;
3121;SDS011;1571;52.524;14.104;2023-07-09T14:37:39;3.23;;;2.83;;
3121;SDS011;1571;52.524;14.104;2023-07-09T14:40:08;3.07;;;2.73;;
3121;SDS011;1571;52.524;14.104;2023-07-09T14:42:38;3.13;;;2.93;;
3121;SDS011;1571;52.524;14.104;2023-07-09T14:45:15;3.07;;;2.83;;
3121;SDS011;1571;52.524;14.104;2023-07-09T14:47:45;3.50;;;3.30;;
3121;SDS011;1571;52.524;14.104;2023-07-09T14:50:15;3.23;;;2.93;;
3121;SDS011;1571;52.524;14.104;2023-07-09T14:52:46;3.27;;;2.97;;
3121;SDS011;1571;52.524;14.104;2023-07-09T14:55:16;3.00;;;2.80;;
3121;SDS011;1571;52.524;14.104;2023-07-09T14:57:47;3.37;;;2.87;;
3121;SDS011;1571;52.524;14.104;2023-07-09T15:00:16;3.27;;;2.97;;
3121;SDS011;1571;52.524;14.104;2023-07-09T15:02:48;3.07;;;2.77;;
3121;SDS011;1571;52.524;14.104;2023-07-09T15:05:20;4.47;;;3.80;;
3121;SDS011;1571;52.524;14.104;2023-07-09T15:07:51;4.20;;;3.20;;
3121;SDS011;1571;52.524;14.104;2023-07-09T15:10:22;2.13;;;2.03;;
3121;SDS011;1571;52.524;14.104;2023-07-09T15:12:53;3.20;;;2.57;;
3121;SDS011;1571;52.524;14.104;2023-07-09T15:15:32;2.80;;;2.57;;
3121;SDS011;1571;52.524;14.104;2023-07-09T15:18:11;6.20;;;3.37;;
3121;SDS011;1571;52.524;14.104;2023-07-09T15:20:59;3.90;;;3.60;;
3121;SDS011;1571;52.524;14.104;2023-07-09T15:23:39;2.60;;;2.17;;
3121;SDS011;1571;52.524;14.104;2023-07-09T15:26:52;6.70;;;4.20;;